Laura Elizabeth — WV9611 — position and weather

sailwx.info

Track history (hours):
 
Tides and Currents Weather Stations Pressure Air Temp Water Temp Dewpoint Dewpoint Depression Visibility Wind Speed Wind Dir Waves Ship Positions

Laura Elizabeth

Owner: Southern Towing Company, LLC, MEMPHIS, TN. More information available from US FCC via Universal Licensing System and Coast Guard Vessel Documentation Center.

Last reported at 2018-Feb-25 23:23 UTC. Time now 2018-Feb-25 23:57 UTC.
Position N 29°37' W 094°20'.

Length 40 m; draft 9 m.

Type: Towing. MMSI: 366917140.

Date/timePositionNaut miles runAvg speedWind from/ knotsBaromVisibWave heightAir tempDewpointWater temp
2018-Feb-25 23:23N 29°37' W 094°20'2 4.1
2018-Feb-25 23:00N 29°37' W 094°21'0 0.0
2018-Feb-25 22:30N 29°37' W 094°21'1 2.2
2018-Feb-25 22:00N 29°36' W 094°22'3 4.7
2018-Feb-25 21:28N 29°35' W 094°25'0 1.0
2018-Feb-25 21:00N 29°34' W 094°25'0 0.1
2018-Feb-25 20:27N 29°34' W 094°25'2 5.3
2018-Feb-25 20:00N 29°34' W 094°28'3 4.9
2018-Feb-25 19:27N 29°31' W 094°30'31 1.9
2018-Feb-25 03:29N 29°16' W 094°60'12 1.2
2018-Feb-24 17:58N 29°08' W 095°10'0 0.0
2018-Feb-24 16:10N 29°08' W 095°10'0 0.0
2018-Feb-24 15:57N 29°08' W 095°10'0 0.1
2018-Feb-24 15:30N 29°08' W 095°10'3 1.7
2018-Feb-24 14:02N 29°06' W 095°12'1 4.3
2018-Feb-24 13:47N 29°05' W 095°12'1 4.3
2018-Feb-24 13:28N 29°04' W 095°13'3 4.4
2018-Feb-24 12:53N 29°01' W 095°14'2 4.3
2018-Feb-24 12:26N 28°60' W 095°15'0 0.1
2018-Feb-24 11:58N 28°60' W 095°15'0 0.0
2018-Feb-24 11:29N 28°60' W 095°15'0 0.0
2018-Feb-24 10:59N 28°60' W 095°15'0 0.0
2018-Feb-24 05:17N 28°60' W 095°15'0 0.0
2018-Feb-23 23:37N 28°60' W 095°15'0 0.0
2018-Feb-23 23:21N 28°60' W 095°15'0 0.0
2018-Feb-23 22:53N 28°60' W 095°15'8 1.8
2018-Feb-23 18:12N 28°54' W 095°22'2 3.4
2018-Feb-23 17:45N 28°54' W 095°24'0 1.2
2018-Feb-23 17:30N 28°54' W 095°24'3 2.5
2018-Feb-23 16:15N 28°52' W 095°27'  
2018-Feb-20 14:55N 28°40' W 095°60'0 0.0
2018-Feb-20 13:19N 28°40' W 095°60'0 0.0
2018-Feb-20 06:34N 28°40' W 096°00'0 0.0
2018-Feb-19 18:37N 28°40' W 095°60'0 0.0
2018-Feb-19 18:24N 28°40' W 095°60'4 0.8
2018-Feb-19 12:54N 28°38' W 096°04'0 0.0
2018-Feb-19 12:29N 28°38' W 096°04'7 0.6
2018-Feb-19 00:27N 28°35' W 096°11'3 7.0
2018-Feb-18 23:58N 28°32' W 096°14'3 7.1
2018-Feb-18 23:30N 28°30' W 096°17'6 6.9
2018-Feb-18 22:34N 28°27' W 096°23'2 6.2
2018-Feb-18 22:13N 28°26' W 096°26'2 6.2
2018-Feb-18 21:51N 28°25' W 096°28'2 3.3
2018-Feb-18 21:22N 28°24' W 096°29'12 3.0
2018-Feb-18 17:23N 28°21' W 096°42'9 0.7
2018-Feb-18 05:07N 28°29' W 096°47'0 0.4
2018-Feb-18 04:59N 28°29' W 096°47'2 4.0
2018-Feb-18 04:29N 28°30' W 096°48'14 0.3
2018-Feb-16 03:31N 28°42' W 096°58'  
Track history (hours):
 
Tides and Currents Weather Stations Pressure Air Temp Water Temp Dewpoint Dewpoint Depression Visibility Wind Speed Wind Dir Waves Ship Positions

Laura Elizabeth

Owner: Southern Towing Company, LLC, MEMPHIS, TN. More information available from US FCC via Universal Licensing System and Coast Guard Vessel Documentation Center.

Last reported at 2018-Feb-25 23:23 UTC. Time now 2018-Feb-25 23:57 UTC.
Position N 29°37' W 094°20'.

Length 40 m; draft 9 m.

Type: Towing. MMSI: 366917140.

Date/timePositionNaut miles runAvg speedWind from/ knotsBaromVisibWave heightAir tempDewpointWater temp
2018-Feb-25 23:23N 29°37' W 094°20'2 4.1
2018-Feb-25 23:00N 29°37' W 094°21'0 0.0
2018-Feb-25 22:30N 29°37' W 094°21'1 2.2
2018-Feb-25 22:00N 29°36' W 094°22'3 4.7
2018-Feb-25 21:28N 29°35' W 094°25'0 1.0
2018-Feb-25 21:00N 29°34' W 094°25'0 0.1
2018-Feb-25 20:27N 29°34' W 094°25'2 5.3
2018-Feb-25 20:00N 29°34' W 094°28'3 4.9
2018-Feb-25 19:27N 29°31' W 094°30'31 1.9
2018-Feb-25 03:29N 29°16' W 094°60'12 1.2
2018-Feb-24 17:58N 29°08' W 095°10'0 0.0
2018-Feb-24 16:10N 29°08' W 095°10'0 0.0
2018-Feb-24 15:57N 29°08' W 095°10'0 0.1
2018-Feb-24 15:30N 29°08' W 095°10'3 1.7
2018-Feb-24 14:02N 29°06' W 095°12'1 4.3
2018-Feb-24 13:47N 29°05' W 095°12'1 4.3
2018-Feb-24 13:28N 29°04' W 095°13'3 4.4
2018-Feb-24 12:53N 29°01' W 095°14'2 4.3
2018-Feb-24 12:26N 28°60' W 095°15'0 0.1
2018-Feb-24 11:58N 28°60' W 095°15'0 0.0
2018-Feb-24 11:29N 28°60' W 095°15'0 0.0
2018-Feb-24 10:59N 28°60' W 095°15'0 0.0
2018-Feb-24 05:17N 28°60' W 095°15'0 0.0
2018-Feb-23 23:37N 28°60' W 095°15'0 0.0
2018-Feb-23 23:21N 28°60' W 095°15'0 0.0
2018-Feb-23 22:53N 28°60' W 095°15'8 1.8
2018-Feb-23 18:12N 28°54' W 095°22'2 3.4
2018-Feb-23 17:45N 28°54' W 095°24'0 1.2
2018-Feb-23 17:30N 28°54' W 095°24'3 2.5
2018-Feb-23 16:15N 28°52' W 095°27'  
2018-Feb-20 14:55N 28°40' W 095°60'0 0.0
2018-Feb-20 13:19N 28°40' W 095°60'0 0.0
2018-Feb-20 06:34N 28°40' W 096°00'0 0.0
2018-Feb-19 18:37N 28°40' W 095°60'0 0.0
2018-Feb-19 18:24N 28°40' W 095°60'4 0.8
2018-Feb-19 12:54N 28°38' W 096°04'0 0.0
2018-Feb-19 12:29N 28°38' W 096°04'7 0.6
2018-Feb-19 00:27N 28°35' W 096°11'3 7.0
2018-Feb-18 23:58N 28°32' W 096°14'3 7.1
2018-Feb-18 23:30N 28°30' W 096°17'6 6.9
2018-Feb-18 22:34N 28°27' W 096°23'2 6.2
2018-Feb-18 22:13N 28°26' W 096°26'2 6.2
2018-Feb-18 21:51N 28°25' W 096°28'2 3.3
2018-Feb-18 21:22N 28°24' W 096°29'12 3.0
2018-Feb-18 17:23N 28°21' W 096°42'9 0.7
2018-Feb-18 05:07N 28°29' W 096°47'0 0.4
2018-Feb-18 04:59N 28°29' W 096°47'2 4.0
2018-Feb-18 04:29N 28°30' W 096°48'14 0.3
2018-Feb-16 03:31N 28°42' W 096°58'  

Dump ship's entire track history